Time;durP1;ratioP1;P1;durP2;ratioP2;P2;SDS_P1;SDS_P2;PMS_P1;PMS_P2;Temp;Humidity;BMP_temperature;BMP_pressure;BME280_temperature;BME280_humidity;BME280_pressure;Samples;Min_cycle;Max_cycle;Signal;HPM_P1;HPM_P2
2023/07/16 00:01:20;;;;;;;11.90;2.95;;;14.20;99.90;;;;;;5049290;28;20039;-72
2023/07/16 00:03:46;;;;;;;9.85;2.70;;;14.20;99.90;;;;;;5047955;28;20033;-72
2023/07/16 00:06:12;;;;;;;10.07;3.17;;;14.10;99.90;;;;;;5049253;28;20463;-72
2023/07/16 00:08:37;;;;;;;12.25;3.40;;;14.20;99.90;;;;;;5048871;28;20028;-72
2023/07/16 00:11:04;;;;;;;11.23;3.00;;;14.20;99.90;;;;;;5049190;28;20055;-72
2023/07/16 00:13:29;;;;;;;8.55;3.17;;;14.10;99.90;;;;;;5049036;28;20122;-75
2023/07/16 00:15:55;;;;;;;10.48;3.25;;;14.10;99.90;;;;;;5049453;28;20175;-73
2023/07/16 00:18:21;;;;;;;11.10;3.30;;;14.10;99.90;;;;;;5050412;28;20454;-72
2023/07/16 00:20:46;;;;;;;12.25;3.30;;;14.10;99.90;;;;;;5052540;28;20082;-72
2023/07/16 00:23:12;;;;;;;10.75;3.17;;;14.10;99.90;;;;;;5053369;28;20025;-72
2023/07/16 00:25:38;;;;;;;13.10;3.38;;;14.10;99.90;;;;;;5052855;28;20036;-72
2023/07/16 00:28:03;;;;;;;8.73;2.78;;;14.10;99.90;;;;;;5052878;28;20053;-72
2023/07/16 00:30:29;;;;;;;9.52;2.88;;;14.10;99.90;;;;;;5052955;28;20040;-75
2023/07/16 00:32:55;;;;;;;12.13;3.25;;;14.00;99.90;;;;;;5052603;28;20032;-71
2023/07/16 00:35:20;;;;;;;14.10;3.58;;;14.10;99.90;;;;;;5052501;28;20459;-72
2023/07/16 00:37:46;;;;;;;14.38;3.33;;;14.10;99.90;;;;;;5052189;28;20027;-72
2023/07/16 00:40:13;;;;;;;12.13;3.88;;;14.10;99.90;;;;;;5051149;28;20378;-71
2023/07/16 00:42:38;;;;;;;15.35;3.45;;;14.10;99.90;;;;;;5052438;28;20554;-72
2023/07/16 00:45:11;;;;;;;13.43;2.97;;;14.10;99.90;;;;;;5051513;28;20108;-72
2023/07/16 00:47:36;;;;;;;14.25;3.75;;;14.10;99.90;;;;;;5052404;28;20449;-72
2023/07/16 00:50:02;;;;;;;11.50;3.13;;;14.00;99.90;;;;;;5052844;28;20057;-72
2023/07/16 00:52:28;;;;;;;8.43;3.10;;;14.00;99.90;;;;;;5052636;28;20139;-75
2023/07/16 00:54:54;;;;;;;13.10;3.58;;;14.00;99.90;;;;;;5052329;28;20025;-72
2023/07/16 00:57:20;;;;;;;14.38;2.80;;;14.00;99.90;;;;;;5052969;28;20075;-73
2023/07/16 00:59:45;;;;;;;10.45;3.00;;;14.00;99.90;;;;;;5052125;28;20025;-72
2023/07/16 01:02:11;;;;;;;10.07;3.33;;;13.90;99.90;;;;;;5050891;28;20029;-71
2023/07/16 01:04:37;;;;;;;11.07;3.22;;;14.00;99.90;;;;;;5051855;28;20367;-73
2023/07/16 01:07:06;;;;;;;12.88;3.47;;;14.00;99.90;;;;;;5052317;28;20155;-74
2023/07/16 01:09:33;;;;;;;10.73;2.85;;;14.00;99.90;;;;;;5051814;28;20091;-74
2023/07/16 01:12:00;;;;;;;13.80;3.45;;;14.00;99.90;;;;;;5052087;28;20454;-73
2023/07/16 01:14:27;;;;;;;12.68;4.38;;;14.00;99.90;;;;;;5052355;28;20394;-73
2023/07/16 01:16:58;;;;;;;12.88;3.53;;;14.00;99.90;;;;;;5052364;28;20144;-74
2023/07/16 01:19:24;;;;;;;11.25;3.22;;;14.00;99.90;;;;;;5052731;28;20056;-74
2023/07/16 01:22:25;;;;;;;9.25;2.70;;;14.00;99.90;;;;;;5050823;28;20248;-74
2023/07/16 01:25:05;;;;;;;11.27;3.20;;;13.90;99.90;;;;;;5033145;28;20101;-74
2023/07/16 01:28:08;;;;;;;12.57;3.78;;;14.00;99.90;;;;;;5052487;28;20335;-76
2023/07/16 01:30:37;;;;;;;;;;;13.90;99.90;;;;;;5052143;28;20101;-73
2023/07/16 01:33:04;;;;;;;10.40;2.75;;;14.00;99.90;;;;;;5052796;28;20235;-73
2023/07/16 01:35:30;;;;;;;11.00;2.90;;;13.90;99.90;;;;;;5052329;28;20025;-76
2023/07/16 01:37:56;;;;;;;9.35;2.78;;;13.90;99.90;;;;;;5052190;28;20106;-73
2023/07/16 01:40:21;;;;;;;9.80;2.95;;;13.90;99.90;;;;;;5052288;28;20037;-72
2023/07/16 01:42:47;;;;;;;10.45;3.10;;;13.90;99.90;;;;;;5051844;28;20408;-74
2023/07/16 01:45:13;;;;;;;8.93;3.03;;;13.90;99.90;;;;;;5052201;28;20037;-74
2023/07/16 01:48:03;;;;;;;12.60;3.42;;;13.90;99.90;;;;;;5051782;28;20025;-75
2023/07/16 01:50:28;;;;;;;10.85;2.65;;;13.90;99.90;;;;;;5051903;28;20069;-74
2023/07/16 01:52:54;;;;;;;10.07;2.50;;;13.80;99.90;;;;;;5051596;28;20159;-73
2023/07/16 01:55:20;;;;;;;7.72;2.33;;;13.80;99.90;;;;;;5051839;28;20466;-73
2023/07/16 01:57:45;;;;;;;10.70;2.60;;;13.80;99.90;;;;;;5051594;28;20045;-73
2023/07/16 02:00:11;;;;;;;11.63;2.45;;;13.80;99.90;;;;;;5052004;28;20111;-73
2023/07/16 02:02:37;;;;;;;12.15;3.10;;;13.70;99.90;;;;;;5051707;28;20017;-73
2023/07/16 02:05:03;;;;;;;11.23;2.53;;;13.70;99.90;;;;;;5052248;28;20369;-73
2023/07/16 02:07:29;;;;;;;9.65;2.90;;;13.70;99.90;;;;;;5051836;28;20028;-72
2023/07/16 02:09:55;;;;;;;9.93;2.92;;;13.70;99.90;;;;;;5051427;28;20040;-73
2023/07/16 02:12:20;;;;;;;10.52;3.05;;;13.70;99.90;;;;;;5051840;28;20025;-73
2023/07/16 02:14:46;;;;;;;7.90;2.50;;;13.70;99.90;;;;;;5051159;28;20128;-73
2023/07/16 02:17:12;;;;;;;13.02;2.78;;;13.60;99.90;;;;;;5051735;28;20025;-73
2023/07/16 02:19:37;;;;;;;9.85;2.63;;;13.50;99.90;;;;;;5050866;28;20434;-74
2023/07/16 02:22:03;;;;;;;7.55;2.42;;;13.50;99.90;;;;;;5051794;28;20028;-73
2023/07/16 02:24:29;;;;;;;8.95;2.47;;;13.40;99.90;;;;;;5051631;28;20025;-74
2023/07/16 02:26:54;;;;;;;8.05;2.60;;;13.40;99.90;;;;;;5050588;28;20240;-74
2023/07/16 02:29:20;;;;;;;6.97;2.30;;;13.40;99.90;;;;;;5051171;28;20104;-73
2023/07/16 02:31:48;;;;;;;8.77;2.72;;;13.40;99.90;;;;;;5050899;28;20025;-74
2023/07/16 02:34:14;;;;;;;9.02;2.55;;;13.40;99.90;;;;;;5049950;28;20025;-74
2023/07/16 02:36:39;;;;;;;10.15;2.40;;;13.40;99.90;;;;;;5050906;28;20099;-74
2023/07/16 02:39:05;;;;;;;11.05;2.35;;;13.40;99.90;;;;;;5051291;28;20386;-74
2023/07/16 02:41:31;;;;;;;10.38;2.88;;;13.30;99.90;;;;;;5051252;28;20462;-74
2023/07/16 02:44:01;;;;;;;8.40;2.95;;;13.30;99.90;;;;;;5050658;28;20451;-74
2023/07/16 02:46:27;;;;;;;7.45;2.20;;;13.30;99.90;;;;;;5050859;28;20032;-74
2023/07/16 02:48:53;;;;;;;8.65;2.47;;;13.30;99.90;;;;;;5050369;28;20024;-73
2023/07/16 02:51:18;;;;;;;9.60;2.40;;;13.30;99.90;;;;;;5051045;28;20094;-73
2023/07/16 02:53:44;;;;;;;14.32;2.90;;;13.20;99.90;;;;;;5050403;28;20383;-73
2023/07/16 02:56:10;;;;;;;8.77;2.58;;;13.20;99.90;;;;;;5050849;28;20040;-73
2023/07/16 02:58:36;;;;;;;5.57;2.50;;;13.20;99.90;;;;;;5050568;28;20029;-75
2023/07/16 03:01:01;;;;;;;7.93;2.33;;;13.30;99.90;;;;;;5050497;28;20032;-74
2023/07/16 03:03:27;;;;;;;7.85;2.47;;;13.20;99.90;;;;;;5050593;28;20025;-73
2023/07/16 03:05:53;;;;;;;11.90;2.50;;;13.20;99.90;;;;;;5050304;28;20390;-74
2023/07/16 03:08:19;;;;;;;17.35;2.90;;;13.20;99.90;;;;;;5050634;28;20425;-73
2023/07/16 03:10:45;;;;;;;7.55;2.90;;;13.20;99.90;;;;;;5050234;28;20029;-73
2023/07/16 03:13:10;;;;;;;10.70;2.85;;;13.20;99.90;;;;;;5050561;28;20051;-73
2023/07/16 03:15:36;;;;;;;8.90;2.90;;;13.30;99.90;;;;;;5050878;28;20040;-73
2023/07/16 03:18:03;;;;;;;10.43;2.80;;;13.30;99.90;;;;;;5050542;28;20077;-73
2023/07/16 03:20:29;;;;;;;10.82;2.90;;;13.30;99.90;;;;;;5051296;28;20029;-73
2023/07/16 03:22:54;;;;;;;10.85;2.58;;;13.30;99.90;;;;;;5050386;28;20435;-73
2023/07/16 03:25:20;;;;;;;7.03;2.38;;;13.30;99.90;;;;;;5050903;28;20458;-73
2023/07/16 03:27:46;;;;;;;7.50;2.58;;;13.30;99.90;;;;;;5050183;28;20063;-73
2023/07/16 03:30:11;;;;;;;9.32;2.80;;;13.40;99.90;;;;;;5050680;28;20470;-74
2023/07/16 03:32:37;;;;;;;10.77;2.83;;;13.40;99.90;;;;;;5050511;28;20029;-73
2023/07/16 03:35:03;;;;;;;8.05;2.63;;;13.40;99.90;;;;;;5050148;28;20032;-73
2023/07/16 03:37:29;;;;;;;10.25;2.50;;;13.40;99.90;;;;;;5050182;28;20104;-75
2023/07/16 03:39:54;;;;;;;11.27;2.67;;;13.50;99.90;;;;;;5050185;28;20032;-73
2023/07/16 03:42:22;;;;;;;6.70;2.22;;;13.50;99.90;;;;;;5050685;28;20025;-73
2023/07/16 03:44:47;;;;;;;10.98;2.50;;;13.40;99.90;;;;;;5049645;28;20366;-73
2023/07/16 03:47:13;;;;;;;6.70;2.50;;;13.40;99.90;;;;;;5050535;28;20085;-73
2023/07/16 03:49:39;;;;;;;8.73;2.17;;;13.40;99.90;;;;;;5050508;28;20438;-75
2023/07/16 03:52:06;;;;;;;11.15;2.65;;;13.40;99.90;;;;;;5050216;28;20032;-74
2023/07/16 03:54:31;;;;;;;8.27;2.60;;;13.40;99.90;;;;;;5049694;28;20437;-73
2023/07/16 03:56:57;;;;;;;9.25;2.58;;;13.40;99.90;;;;;;5049663;28;20021;-74
2023/07/16 03:59:23;;;;;;;8.10;2.30;;;13.30;99.90;;;;;;5050424;28;20048;-73
2023/07/16 04:01:48;;;;;;;9.13;2.10;;;13.30;99.90;;;;;;5049553;28;20336;-73
2023/07/16 04:04:14;;;;;;;8.02;2.20;;;13.30;99.90;;;;;;5050159;28;20107;-73
2023/07/16 04:06:40;;;;;;;7.25;2.33;;;13.30;99.90;;;;;;5050180;28;20099;-75
2023/07/16 04:09:05;;;;;;;7.82;2.17;;;13.30;99.90;;;;;;5049735;28;20418;-74
2023/07/16 04:11:31;;;;;;;10.60;2.53;;;13.30;99.90;;;;;;5049799;28;20033;-73
2023/07/16 04:13:57;;;;;;;6.68;1.90;;;13.30;99.90;;;;;;5049359;28;20052;-74
2023/07/16 04:16:22;;;;;;;8.63;2.22;;;13.30;99.90;;;;;;5050030;28;20481;-73
2023/07/16 04:18:48;;;;;;;6.53;2.10;;;13.30;99.90;;;;;;5049166;28;20029;-73
2023/07/16 04:21:13;;;;;;;5.60;1.80;;;13.30;99.90;;;;;;5049730;28;20158;-73
2023/07/16 04:23:39;;;;;;;2.90;1.90;;;13.30;99.90;;;;;;5050096;28;20021;-73
2023/07/16 04:26:05;;;;;;;5.68;1.80;;;13.30;99.90;;;;;;5049063;28;20092;-73
2023/07/16 04:28:30;;;;;;;4.93;2.15;;;13.40;99.90;;;;;;5049316;28;20505;-73
2023/07/16 04:30:56;;;;;;;5.32;1.88;;;13.40;99.90;;;;;;5048916;28;20040;-73
2023/07/16 04:33:22;;;;;;;4.50;1.92;;;13.40;99.90;;;;;;5049840;28;20407;-73
2023/07/16 04:35:48;;;;;;;7.32;2.60;;;13.40;99.90;;;;;;5047812;28;20025;-74
2023/07/16 04:38:13;;;;;;;5.45;2.03;;;13.40;99.90;;;;;;5049469;28;20136;-73
2023/07/16 04:40:41;;;;;;;7.88;2.10;;;13.50;99.90;;;;;;5049666;28;20036;-73
2023/07/16 04:43:06;;;;;;;4.65;1.85;;;13.50;99.90;;;;;;5048945;28;20024;-73
2023/07/16 04:45:32;;;;;;;5.25;1.73;;;13.50;99.90;;;;;;5049797;28;20348;-73
2023/07/16 04:47:59;;;;;;;3.42;1.73;;;13.50;99.90;;;;;;5049080;28;20029;-73
2023/07/16 04:50:24;;;;;;;6.75;1.73;;;13.60;99.90;;;;;;5049493;28;20033;-73
2023/07/16 04:52:50;;;;;;;7.32;1.75;;;13.60;99.90;;;;;;5049012;28;20130;-73
2023/07/16 04:55:16;;;;;;;8.40;1.80;;;13.60;99.90;;;;;;5049534;28;20052;-74
2023/07/16 04:57:41;;;;;;;11.18;1.95;;;13.60;99.90;;;;;;5049759;28;20354;-73
2023/07/16 05:00:08;;;;;;;6.65;1.60;;;13.60;99.90;;;;;;5049615;28;20079;-74
2023/07/16 05:02:33;;;;;;;4.43;1.50;;;13.70;99.90;;;;;;5050041;28;20086;-73
2023/07/16 05:04:59;;;;;;;5.00;2.00;;;13.70;99.90;;;;;;5049324;28;20433;-74
2023/07/16 05:07:25;;;;;;;3.53;1.58;;;13.70;99.90;;;;;;5053077;28;20025;-74
2023/07/16 05:09:50;;;;;;;7.57;1.95;;;13.80;99.90;;;;;;5052049;28;20033;-73
2023/07/16 05:12:16;;;;;;;4.50;1.63;;;13.80;99.90;;;;;;5053239;28;20025;-73
2023/07/16 05:14:47;;;;;;;4.68;1.90;;;13.80;99.90;;;;;;5051326;28;20393;-73
2023/07/16 05:17:14;;;;;;;7.68;1.88;;;13.80;99.90;;;;;;5051498;28;20486;-73
2023/07/16 05:19:40;;;;;;;5.03;1.58;;;13.80;99.90;;;;;;5052969;28;20215;-74
2023/07/16 05:22:06;;;;;;;6.07;1.92;;;13.70;99.90;;;;;;5052392;28;20108;-73
2023/07/16 05:24:32;;;;;;;6.45;2.13;;;13.70;99.90;;;;;;5052503;28;20036;-73
2023/07/16 05:26:58;;;;;;;5.63;1.80;;;13.70;99.90;;;;;;5050444;28;20032;-73
2023/07/16 05:29:23;;;;;;;7.00;2.05;;;13.80;99.90;;;;;;5052192;28;20029;-73
2023/07/16 05:31:49;;;;;;;6.85;1.92;;;13.80;99.90;;;;;;5051932;28;20061;-74
2023/07/16 05:34:15;;;;;;;9.05;1.92;;;13.80;99.90;;;;;;5052480;28;20036;-73
2023/07/16 05:36:44;;;;;;;6.97;1.63;;;13.90;99.90;;;;;;5052806;28;20021;-73
2023/07/16 05:39:12;;;;;;;4.85;1.40;;;13.90;99.90;;;;;;5051951;28;20111;-73
2023/07/16 05:41:39;;;;;;;5.43;1.63;;;13.90;99.90;;;;;;5052334;28;20033;-73
2023/07/16 05:44:05;;;;;;;4.72;1.63;;;13.90;99.90;;;;;;5051743;28;20063;-74
2023/07/16 05:46:31;;;;;;;10.35;2.40;;;13.90;99.90;;;;;;5052098;28;20057;-73
2023/07/16 05:48:56;;;;;;;5.47;1.70;;;13.90;99.90;;;;;;5052287;28;20060;-74
2023/07/16 05:51:22;;;;;;;5.50;1.85;;;13.90;99.90;;;;;;5052174;28;20033;-74
2023/07/16 05:53:48;;;;;;;3.97;1.67;;;13.90;99.90;;;;;;5050387;28;20021;-75
2023/07/16 05:56:13;;;;;;;5.47;1.83;;;13.90;99.90;;;;;;5052035;28;20095;-74
2023/07/16 05:58:41;;;;;;;5.57;1.40;;;13.90;99.90;;;;;;5051968;28;20379;-73
2023/07/16 06:01:06;;;;;;;5.57;2.30;;;13.90;99.90;;;;;;5051402;28;20025;-74
2023/07/16 06:03:32;;;;;;;7.03;1.98;;;14.00;99.90;;;;;;5051908;28;20104;-74
2023/07/16 06:05:58;;;;;;;4.75;1.73;;;14.00;99.90;;;;;;5051333;28;20044;-74
2023/07/16 06:08:24;;;;;;;8.60;2.20;;;14.00;99.90;;;;;;5052013;28;20060;-74
2023/07/16 06:10:50;;;;;;;5.97;1.60;;;14.10;99.90;;;;;;5051632;28;20116;-76
2023/07/16 06:13:16;;;;;;;7.93;1.80;;;14.10;99.90;;;;;;5050773;28;20458;-73
2023/07/16 06:15:43;;;;;;;7.13;1.98;;;14.10;99.90;;;;;;5051549;28;20032;-74
2023/07/16 06:18:09;;;;;;;8.55;1.92;;;14.20;99.90;;;;;;5051093;28;20028;-74
2023/07/16 06:20:34;;;;;;;6.78;1.92;;;14.30;99.90;;;;;;5052174;28;20051;-74
2023/07/16 06:23:00;;;;;;;8.52;2.17;;;14.30;99.90;;;;;;5051250;28;20107;-74
2023/07/16 06:25:26;;;;;;;6.07;1.65;;;14.30;99.90;;;;;;5051691;28;20450;-74
2023/07/16 06:27:52;;;;;;;5.07;1.35;;;14.40;99.90;;;;;;5051055;28;20047;-76
2023/07/16 06:30:17;;;;;;;5.07;1.92;;;14.40;99.90;;;;;;5051780;28;20382;-74
2023/07/16 06:32:43;;;;;;;5.47;1.60;;;14.40;99.90;;;;;;5051603;28;20025;-73
2023/07/16 06:35:09;;;;;;;8.38;1.55;;;14.50;99.90;;;;;;5051157;28;20405;-74
2023/07/16 06:37:35;;;;;;;6.65;2.22;;;14.60;99.90;;;;;;5051724;28;20418;-74
2023/07/16 06:40:00;;;;;;;7.47;1.83;;;14.70;99.90;;;;;;5051096;28;20447;-74
2023/07/16 06:42:26;;;;;;;5.50;1.60;;;14.90;99.90;;;;;;5051263;28;20057;-74
2023/07/16 06:44:52;;;;;;;6.53;1.77;;;15.10;99.90;;;;;;5051122;28;20071;-76
2023/07/16 06:47:17;;;;;;;4.95;1.70;;;15.10;99.90;;;;;;5051440;28;20025;-74
2023/07/16 06:49:43;;;;;;;7.70;1.90;;;15.20;99.90;;;;;;5051487;28;20025;-74
2023/07/16 06:52:19;;;;;;;6.10;1.80;;;15.20;99.90;;;;;;5050621;28;20025;-73
2023/07/16 06:54:45;;;;;;;6.72;1.75;;;15.30;99.90;;;;;;5051052;28;20033;-74
2023/07/16 06:57:10;;;;;;;5.75;1.92;;;15.50;99.90;;;;;;5050651;28;20032;-74
2023/07/16 06:59:36;;;;;;;4.68;1.60;;;15.70;99.90;;;;;;5051029;28;20563;-74
2023/07/16 07:02:02;;;;;;;7.13;1.80;;;15.80;99.90;;;;;;5050402;28;20021;-74
2023/07/16 07:04:27;;;;;;;4.40;1.60;;;15.80;99.90;;;;;;5050833;28;20105;-73
2023/07/16 07:06:53;;;;;;;5.35;1.20;;;15.80;99.90;;;;;;5050581;28;20032;-76
2023/07/16 07:09:19;;;;;;;4.90;1.75;;;15.70;99.90;;;;;;5051012;28;20044;-73
2023/07/16 07:11:44;;;;;;;2.40;1.40;;;15.70;99.90;;;;;;5050493;28;20035;-74
2023/07/16 07:14:10;;;;;;;6.20;1.70;;;15.80;99.90;;;;;;5050301;28;20023;-74
2023/07/16 07:16:36;;;;;;;4.65;1.95;;;15.90;99.90;;;;;;5050439;28;20485;-74
2023/07/16 07:19:02;;;;;;;4.20;1.50;;;15.90;99.90;;;;;;5050049;28;20075;-74
2023/07/16 07:21:28;;;;;;;3.08;1.58;;;15.90;99.90;;;;;;5050802;28;20033;-72
2023/07/16 07:23:53;;;;;;;3.42;1.42;;;16.00;99.90;;;;;;5050546;28;20440;-75
2023/07/16 07:26:19;;;;;;;6.45;1.88;;;16.00;99.90;;;;;;5050852;28;20021;-73
2023/07/16 07:28:45;;;;;;;10.73;2.05;;;15.90;99.90;;;;;;5049480;28;20099;-73
2023/07/16 07:31:10;;;;;;;5.95;2.08;;;15.80;99.90;;;;;;5049903;28;20484;-73
2023/07/16 07:33:36;;;;;;;8.35;2.28;;;15.70;99.90;;;;;;5050697;28;20025;-74
2023/07/16 07:36:02;;;;;;;9.02;2.15;;;15.70;99.90;;;;;;5049914;28;20459;-74
2023/07/16 07:38:28;;;;;;;11.93;2.65;;;15.70;99.90;;;;;;5050400;28;20036;-74
2023/07/16 07:40:54;;;;;;;5.38;1.92;;;15.60;99.90;;;;;;5050228;28;20044;-74
2023/07/16 07:43:20;;;;;;;8.75;2.13;;;15.60;99.90;;;;;;5049776;28;20029;-74
2023/07/16 07:45:45;;;;;;;5.57;1.85;;;15.50;99.90;;;;;;5048673;28;20423;-74
2023/07/16 07:48:11;;;;;;;7.47;1.80;;;15.60;99.90;;;;;;5049807;28;20061;-74
2023/07/16 07:50:37;;;;;;;6.43;1.95;;;15.50;99.90;;;;;;5049991;28;20038;-74
2023/07/16 07:53:02;;;;;;;9.57;2.40;;;15.50;99.90;;;;;;5049337;28;20088;-75
2023/07/16 07:55:28;;;;;;;5.50;1.95;;;15.50;99.90;;;;;;5050267;28;20032;-74
2023/07/16 07:57:54;;;;;;;4.20;1.95;;;15.50;99.90;;;;;;5049603;28;20450;-73
2023/07/16 08:00:20;;;;;;;7.93;2.15;;;15.40;99.90;;;;;;5049561;28;20051;-74
2023/07/16 08:02:45;;;;;;;6.30;1.90;;;15.40;99.90;;;;;;5049366;28;20032;-74
2023/07/16 08:05:11;;;;;;;6.97;2.38;;;15.40;99.90;;;;;;5049639;28;20106;-74
2023/07/16 08:07:37;;;;;;;6.85;1.92;;;15.40;99.90;;;;;;5049935;28;20068;-74
2023/07/16 08:10:03;;;;;;;7.32;2.30;;;15.40;99.90;;;;;;5048119;28;20041;-74
2023/07/16 08:12:30;;;;;;;11.25;2.58;;;15.40;99.90;;;;;;5049941;28;20021;-74
2023/07/16 08:14:58;;;;;;;12.13;2.70;;;15.50;99.90;;;;;;5049832;28;20375;-73
2023/07/16 08:17:23;;;;;;;12.23;2.47;;;15.60;99.90;;;;;;5049398;28;20026;-74
2023/07/16 08:19:49;;;;;;;8.75;2.70;;;15.60;99.90;;;;;;5049879;28;20075;-74
2023/07/16 08:22:15;;;;;;;14.60;3.08;;;15.50;99.90;;;;;;5049200;28;20074;-74
2023/07/16 08:24:40;;;;;;;7.80;2.75;;;15.50;99.90;;;;;;5049888;28;20056;-74
2023/07/16 08:27:06;;;;;;;10.38;2.88;;;15.50;99.90;;;;;;5049068;28;20083;-74
2023/07/16 08:29:32;;;;;;;7.80;2.50;;;15.50;99.90;;;;;;5049730;28;20026;-74
2023/07/16 08:31:57;;;;;;;6.70;2.38;;;15.60;99.90;;;;;;5049881;28;20051;-75
2023/07/16 08:34:23;;;;;;;9.30;2.60;;;15.70;99.90;;;;;;5049449;28;20106;-74
2023/07/16 08:36:49;;;;;;;8.65;2.33;;;15.70;99.90;;;;;;5049064;28;20108;-74
2023/07/16 08:39:14;;;;;;;10.85;3.33;;;15.90;99.90;;;;;;5050625;28;20032;-75
2023/07/16 08:41:40;;;;;;;11.07;2.67;;;16.20;99.90;;;;;;5053882;28;20037;-74
2023/07/16 08:44:06;;;;;;;9.77;2.30;;;16.30;99.90;;;;;;5052906;28;20028;-75
2023/07/16 08:46:32;;;;;;;8.02;2.10;;;16.50;99.90;;;;;;5053591;28;20051;-74
2023/07/16 08:49:00;;;;;;;8.02;2.22;;;16.60;99.90;;;;;;5053528;28;20029;-74
2023/07/16 08:51:26;;;;;;;5.20;1.73;;;16.80;99.90;;;;;;5053525;28;20037;-74
2023/07/16 08:53:52;;;;;;;8.77;2.13;;;16.80;99.90;;;;;;5053333;28;20107;-74
2023/07/16 08:56:18;;;;;;;10.18;2.45;;;17.00;99.90;;;;;;5052957;28;20441;-74
2023/07/16 08:58:45;;;;;;;5.68;2.08;;;17.10;99.90;;;;;;5053424;28;20033;-74
2023/07/16 09:01:12;;;;;;;6.30;1.92;;;17.30;99.90;;;;;;5052720;28;20364;-75
2023/07/16 09:03:38;;;;;;;8.32;2.08;;;17.60;99.90;;;;;;5053177;28;20327;-75
2023/07/16 09:06:05;;;;;;;5.43;2.03;;;17.80;99.90;;;;;;5052941;28;20029;-75
2023/07/16 09:08:30;;;;;;;7.15;1.88;;;17.90;99.90;;;;;;5053225;28;20465;-74
2023/07/16 09:10:57;;;;;;;7.03;1.67;;;18.00;99.90;;;;;;5053341;28;20124;-74
2023/07/16 09:13:28;;;;;;;7.90;2.35;;;18.00;99.90;;;;;;5052527;28;20036;-74
2023/07/16 09:15:55;;;;;;;8.80;2.60;;;17.60;99.90;;;;;;5053458;28;20029;-74
2023/07/16 09:18:22;;;;;;;8.77;2.10;;;17.60;99.90;;;;;;5052302;28;20025;-74
2023/07/16 09:20:54;;;;;;;7.30;1.67;;;17.80;99.90;;;;;;5053197;28;20036;-74
2023/07/16 09:23:19;;;;;;;9.65;1.70;;;17.90;99.90;;;;;;5052770;28;20056;-74
2023/07/16 09:25:45;;;;;;;6.20;1.90;;;17.60;99.90;;;;;;5052981;28;20076;-73
2023/07/16 09:28:12;;;;;;;6.97;1.58;;;17.50;99.90;;;;;;5051997;28;20451;-74
2023/07/16 09:30:38;;;;;;;10.13;1.67;;;17.30;99.90;;;;;;5052716;28;20041;-74
2023/07/16 09:33:22;;;;;;;6.32;1.60;;;17.30;99.90;;;;;;5052307;28;20029;-76
2023/07/16 09:35:49;;;;;;;5.90;2.08;;;17.20;99.90;;;;;;5052865;28;20025;-74
2023/07/16 09:38:16;;;;;;;6.03;1.80;;;17.30;99.90;;;;;;5052188;28;20046;-74
2023/07/16 09:40:42;;;;;;;5.68;1.60;;;17.60;99.90;;;;;;5052879;28;20029;-74
2023/07/16 09:43:09;;;;;;;8.05;2.00;;;17.80;99.90;;;;;;5052205;28;20029;-75
2023/07/16 09:45:35;;;;;;;4.47;1.60;;;17.90;99.90;;;;;;5052774;28;20030;-75
2023/07/16 09:48:03;;;;;;;6.28;2.00;;;17.70;99.90;;;;;;5052585;28;20047;-74
2023/07/16 09:50:30;;;;;;;3.95;1.52;;;17.60;99.90;;;;;;5051590;28;20033;-74
2023/07/16 09:52:57;;;;;;;5.85;2.10;;;17.40;99.90;;;;;;5051920;28;20346;-75
2023/07/16 09:55:24;;;;;;;9.90;1.55;;;17.40;99.90;;;;;;5051701;28;20025;-75
2023/07/16 09:57:56;;;;;;;5.57;1.85;;;17.40;99.90;;;;;;5052187;28;20036;-75
2023/07/16 10:00:23;;;;;;;6.13;2.00;;;17.50;99.90;;;;;;5051721;28;20029;-75
2023/07/16 10:02:51;;;;;;;5.10;1.70;;;17.60;99.90;;;;;;5051888;28;20029;-75
2023/07/16 10:05:28;;;;;;;9.00;1.83;;;17.70;99.90;;;;;;5051575;28;20087;-75
2023/07/16 10:07:59;;;;;;;7.68;1.90;;;17.90;99.90;;;;;;5052274;28;20049;-75
2023/07/16 10:10:39;;;;;;;8.05;1.67;;;18.10;99.90;;;;;;5051259;28;20686;-75
2023/07/16 10:13:07;;;;;;;4.55;1.90;;;18.20;99.90;;;;;;5050451;28;20024;-77
2023/07/16 10:15:33;;;;;;;7.85;1.90;;;18.20;99.90;;;;;;5052016;28;20031;-75
2023/07/16 10:17:59;;;;;;;7.13;1.70;;;18.10;99.90;;;;;;5051706;28;20323;-75
2023/07/16 10:20:33;;;;;;;6.15;1.83;;;18.00;99.90;;;;;;5051240;28;20595;-75
2023/07/16 10:23:11;;;;;;;4.72;1.38;;;17.80;99.90;;;;;;5051900;28;20431;-74
2023/07/16 10:25:37;;;;;;;4.93;1.30;;;17.70;99.90;;;;;;5051968;28;20028;-75
2023/07/16 10:28:03;;;;;;;5.47;1.55;;;17.60;99.90;;;;;;5051848;28;20049;-74
2023/07/16 10:30:29;;;;;;;5.78;1.95;;;17.50;99.90;;;;;;5050680;28;20463;-74
2023/07/16 10:32:55;;;;;;;5.00;1.50;;;17.50;99.90;;;;;;5051595;28;20027;-74
2023/07/16 10:35:21;;;;;;;6.70;1.88;;;17.70;99.90;;;;;;5050815;28;20025;-73
2023/07/16 10:37:47;;;;;;;4.70;1.95;;;18.00;99.90;;;;;;5051623;28;20061;-73
2023/07/16 10:40:14;;;;;;;5.45;1.83;;;18.30;99.90;;;;;;5050896;28;20056;-74
2023/07/16 10:42:44;;;;;;;5.63;1.40;;;18.50;99.90;;;;;;5051584;28;20071;-73
2023/07/16 10:45:10;;;;;;;5.70;1.80;;;18.50;99.90;;;;;;5050493;28;20489;-74
2023/07/16 10:47:52;;;;;;;5.53;1.65;;;18.50;99.90;;;;;;5051107;28;20021;-74
2023/07/16 10:50:19;;;;;;;4.03;1.60;;;18.50;99.90;;;;;;5050643;28;20037;-74
2023/07/16 10:52:45;;;;;;;5.80;1.77;;;18.20;99.90;;;;;;5051419;28;20438;-74
2023/07/16 10:55:10;;;;;;;3.70;1.48;;;18.00;99.90;;;;;;5050677;28;20060;-75
2023/07/16 10:57:36;;;;;;;5.53;1.70;;;17.90;99.90;;;;;;5051366;28;20082;-74
2023/07/16 11:00:03;;;;;;;5.50;2.13;;;17.60;99.90;;;;;;5051072;28;20397;-74
2023/07/16 11:02:29;;;;;;;7.10;1.77;;;17.60;99.90;;;;;;5050593;28;20078;-75
2023/07/16 11:04:57;;;;;;;3.67;1.85;;;17.70;99.90;;;;;;5051307;28;20021;-74
2023/07/16 11:07:22;;;;;;;9.57;1.88;;;17.90;99.90;;;;;;5050445;28;20029;-74
2023/07/16 11:09:53;;;;;;;4.32;1.90;;;18.20;99.90;;;;;;5051038;28;20028;-74
2023/07/16 11:12:23;;;;;;;3.83;1.45;;;18.40;99.90;;;;;;5050118;28;20021;-74
2023/07/16 11:14:54;;;;;;;4.53;1.45;;;18.60;99.90;;;;;;5050709;28;20021;-74
2023/07/16 11:17:22;;;;;;;4.32;1.63;;;18.70;99.90;;;;;;5050571;28;20029;-74
2023/07/16 11:19:49;;;;;;;7.85;1.98;;;18.80;99.90;;;;;;5050666;28;20414;-74
2023/07/16 11:22:16;;;;;;;6.70;1.63;;;18.90;99.90;;;;;;5050064;28;20039;-74
2023/07/16 11:24:43;;;;;;;5.18;1.60;;;18.90;99.90;;;;;;5050520;28;20087;-73
2023/07/16 11:27:15;;;;;;;6.03;1.92;;;19.00;99.90;;;;;;5050286;28;20027;-75
2023/07/16 11:29:56;;;;;;;5.20;1.70;;;19.00;99.90;;;;;;5050497;28;20036;-73
2023/07/16 11:32:35;;;;;;;4.57;1.50;;;19.20;99.90;;;;;;5050113;28;20052;-74
2023/07/16 11:35:06;;;;;;;4.90;1.42;;;19.30;99.90;;;;;;5050174;28;20488;-73
2023/07/16 11:37:34;;;;;;;4.55;1.60;;;19.40;99.90;;;;;;5049672;28;20023;-74
2023/07/16 11:40:05;;;;;;;5.45;1.60;;;19.40;99.90;;;;;;5050204;28;20036;-74
2023/07/16 11:42:36;;;;;;;5.05;1.70;;;19.30;99.90;;;;;;5049651;28;20060;-74
2023/07/16 11:45:03;;;;;;;6.30;1.50;;;19.20;99.90;;;;;;5049116;28;20386;-73
2023/07/16 11:47:29;;;;;;;5.22;1.40;;;19.30;99.90;;;;;;5049953;28;20113;-74
2023/07/16 11:49:56;;;;;;;5.60;1.50;;;19.40;99.90;;;;;;5050453;28;20021;-74
2023/07/16 11:52:28;;;;;;;6.10;1.77;;;19.60;99.90;;;;;;5049474;28;20039;-74
2023/07/16 11:54:56;;;;;;;5.95;1.88;;;19.60;99.90;;;;;;5049971;28;20359;-74
2023/07/16 11:57:23;;;;;;;6.07;1.80;;;19.50;99.90;;;;;;5049339;28;20450;-75
2023/07/16 11:59:49;;;;;;;8.70;2.00;;;19.30;99.90;;;;;;5050657;28;20113;-76
2023/07/16 12:02:15;;;;;;;4.72;1.98;;;19.00;99.90;;;;;;5050144;28;20161;-78
2023/07/16 12:04:41;;;;;;;5.57;2.40;;;18.70;99.90;;;;;;5050626;28;20032;-77
2023/07/16 12:07:07;;;;;;;8.43;2.30;;;18.60;99.90;;;;;;5050090;28;20033;-76
2023/07/16 12:09:33;;;;;;;4.70;1.55;;;18.80;99.90;;;;;;5049470;28;20073;-76
2023/07/16 12:12:00;;;;;;;6.40;1.95;;;18.90;99.90;;;;;;5049649;28;20481;-75
2023/07/16 12:14:26;;;;;;;6.57;1.60;;;19.00;99.90;;;;;;5050534;28;20055;-76
2023/07/16 12:16:52;;;;;;;5.70;1.80;;;19.00;99.90;;;;;;5053837;28;20108;-75
2023/07/16 12:19:17;;;;;;;4.45;1.30;;;19.20;99.90;;;;;;5053068;28;20029;-75
2023/07/16 12:21:43;;;;;;;2.78;1.30;;;19.20;99.90;;;;;;5053386;28;20041;-74
2023/07/16 12:24:09;;;;;;;3.53;1.30;;;19.30;99.90;;;;;;5053955;28;20108;-75
2023/07/16 12:26:35;;;;;;;3.60;1.45;;;19.30;99.90;;;;;;5053374;28;20029;-74
2023/07/16 12:29:05;;;;;;;5.13;1.90;;;19.20;99.90;;;;;;5054040;28;20148;-75
2023/07/16 12:31:34;;;;;;;3.75;1.30;;;19.10;99.90;;;;;;5051837;28;20071;-74
2023/07/16 12:34:04;;;;;;;7.38;1.73;;;19.00;99.90;;;;;;5053687;28;20116;-74
2023/07/16 12:36:30;;;;;;;5.18;2.00;;;19.20;99.90;;;;;;5052457;28;20082;-74
2023/07/16 12:38:56;;;;;;;6.72;1.70;;;19.30;99.90;;;;;;5053278;28;20029;-74
2023/07/16 12:41:22;;;;;;;3.90;1.38;;;19.60;99.90;;;;;;5052744;28;20028;-74
2023/07/16 12:43:47;;;;;;;8.73;1.67;;;19.70;99.90;;;;;;5053298;28;20072;-74